EWG18M EGLL-LSZH
Flight info
| Callsign | EWG18M |
|---|---|
| Flight time | 1h 35m |
| Altitude | 35000 |
| Route | DET L6 DVR UL9 KONAN DCT KOK DCT SISGA DCT RITAX DCT KRH M150 LAMGO T721 RILAX |
| Aircraft | A320/M-SDE3FGHIRWY/LB1 |
Departure
| Time | 2026-05-07 16:41 |
|---|---|
| Airport | London Heathrow Airport (EGLL) |
Arrival
| Time | 2026-05-07 18:16 |
|---|---|
| Airport | Zürich Airport (LSZH) |
| Time | Latitude | Longitude | Altitude | Speed | Heading |
|---|---|---|---|---|---|
| 2026-05-07 15:56 | 51.46826 | -0.45046 | 87 ft | 0 kts | 360° |
| 2026-05-07 16:28 | 51.46809 | -0.45046 | 89 ft | 2 kts | 360° |
| 2026-05-07 16:28 | 51.46792 | -0.45046 | 87 ft | 2 kts | 360° |
| 2026-05-07 16:28 | 51.46774 | -0.45046 | 87 ft | 3 kts | 348° |
| 2026-05-07 16:28 | 51.46758 | -0.45035 | 87 ft | 3 kts | 311° |
| 2026-05-07 16:29 | 51.46749 | -0.45011 | 91 ft | 3 kts | 274° |
| 2026-05-07 16:29 | 51.46748 | -0.44992 | 87 ft | 0 kts | 272° |
| 2026-05-07 16:33 | 51.46749 | -0.45011 | 91 ft | 5 kts | 274° |
| 2026-05-07 16:33 | 51.46750 | -0.45094 | 87 ft | 10 kts | 270° |
| 2026-05-07 16:33 | 51.46750 | -0.45233 | 87 ft | 15 kts | 270° |
| 2026-05-07 16:33 | 51.46749 | -0.45430 | 87 ft | 20 kts | 269° |
| 2026-05-07 16:34 | 51.46748 | -0.45684 | 87 ft | 24 kts | 269° |
| 2026-05-07 16:34 | 51.46747 | -0.45962 | 90 ft | 26 kts | 270° |
| 2026-05-07 16:34 | 51.46746 | -0.46269 | 88 ft | 29 kts | 269° |
| 2026-05-07 16:34 | 51.46747 | -0.46600 | 91 ft | 31 kts | 270° |
| 2026-05-07 16:35 | 51.46746 | -0.46955 | 87 ft | 33 kts | 270° |
| 2026-05-07 16:35 | 51.46745 | -0.47286 | 87 ft | 27 kts | 270° |
| 2026-05-07 16:35 | 51.46744 | -0.47598 | 87 ft | 29 kts | 269° |
| 2026-05-07 16:35 | 51.46743 | -0.47931 | 87 ft | 28 kts | 269° |
| 2026-05-07 16:36 | 51.46742 | -0.48116 | 87 ft | 10 kts | 269° |
| 2026-05-07 16:36 | 51.46742 | -0.48121 | 87 ft | 0 kts | 269° |
| 2026-05-07 16:36 | 51.46742 | -0.48124 | 87 ft | 2 kts | 269° |
| 2026-05-07 16:37 | 51.46742 | -0.48169 | 87 ft | 6 kts | 269° |
| 2026-05-07 16:37 | 51.46742 | -0.48256 | 87 ft | 9 kts | 270° |
| 2026-05-07 16:37 | 51.46742 | -0.48371 | 87 ft | 13 kts | 269° |
| 2026-05-07 16:37 | 51.46741 | -0.48559 | 87 ft | 18 kts | 269° |
| 2026-05-07 16:38 | 51.46739 | -0.48703 | 87 ft | 12 kts | 256° |
| 2026-05-07 16:38 | 51.46661 | -0.48751 | 88 ft | 14 kts | 178° |
| 2026-05-07 16:38 | 51.46628 | -0.48755 | 88 ft | 0 kts | 195° |
| 2026-05-07 16:39 | 51.46616 | -0.48761 | 88 ft | 5 kts | 195° |
| 2026-05-07 16:39 | 51.46556 | -0.48790 | 90 ft | 12 kts | 187° |
| 2026-05-07 16:39 | 51.46479 | -0.48710 | 90 ft | 17 kts | 107° |
| 2026-05-07 16:40 | 51.46479 | -0.48421 | 89 ft | 50 kts | 90° |
| 2026-05-07 16:40 | 51.46480 | -0.47479 | 86 ft | 115 kts | 90° |
| 2026-05-07 16:40 | 51.46494 | -0.45933 | 89 ft | 164 kts | 90° |
| 2026-05-07 16:40 | 51.46513 | -0.44008 | 503 ft | 178 kts | 91° |
| 2026-05-07 16:41 | 51.46488 | -0.41957 | 1156 ft | 192 kts | 95° |
| 2026-05-07 16:41 | 51.46074 | -0.39825 | 1768 ft | 209 kts | 115° |
| 2026-05-07 16:41 | 51.45424 | -0.37696 | 2392 ft | 217 kts | 114° |
| 2026-05-07 16:41 | 51.44644 | -0.35497 | 2857 ft | 236 kts | 122° |
| 2026-05-07 16:42 | 51.43816 | -0.33174 | 3534 ft | 246 kts | 113° |
| 2026-05-07 16:42 | 51.43092 | -0.30580 | 4133 ft | 261 kts | 111° |
| 2026-05-07 16:42 | 51.42530 | -0.27773 | 5024 ft | 266 kts | 104° |
| 2026-05-07 16:42 | 51.42117 | -0.24873 | 5925 ft | 269 kts | 101° |
| 2026-05-07 16:43 | 51.41758 | -0.21922 | 6814 ft | 272 kts | 100° |
| 2026-05-07 16:43 | 51.41404 | -0.18960 | 7649 ft | 276 kts | 101° |
| 2026-05-07 16:43 | 51.41029 | -0.15915 | 8460 ft | 281 kts | 101° |
| 2026-05-07 16:43 | 51.40631 | -0.12809 | 9262 ft | 287 kts | 102° |
| 2026-05-07 16:44 | 51.40213 | -0.09657 | 10054 ft | 293 kts | 102° |
| 2026-05-07 16:44 | 51.39768 | -0.06387 | 10474 ft | 311 kts | 102° |
| 2026-05-07 16:44 | 51.39285 | -0.02887 | 10724 ft | 334 kts | 102° |
| 2026-05-07 16:44 | 51.38777 | 0.00745 | 11275 ft | 343 kts | 103° |
| 2026-05-07 16:45 | 51.38246 | 0.04508 | 11984 ft | 348 kts | 103° |
| 2026-05-07 16:45 | 51.37711 | 0.08315 | 12734 ft | 353 kts | 103° |
| 2026-05-07 16:45 | 51.37172 | 0.12167 | 13470 ft | 357 kts | 103° |
| 2026-05-07 16:45 | 51.36626 | 0.16062 | 14170 ft | 361 kts | 103° |
| 2026-05-07 16:46 | 51.36081 | 0.19946 | 14800 ft | 364 kts | 103° |
| 2026-05-07 16:46 | 51.35524 | 0.23905 | 15443 ft | 368 kts | 103° |
| 2026-05-07 16:46 | 51.34962 | 0.27910 | 16075 ft | 371 kts | 103° |
| 2026-05-07 16:46 | 51.34390 | 0.31951 | 16532 ft | 375 kts | 103° |
| 2026-05-07 16:47 | 51.33809 | 0.36035 | 17147 ft | 378 kts | 103° |
| 2026-05-07 16:47 | 51.33218 | 0.40156 | 17758 ft | 382 kts | 103° |
| 2026-05-07 16:47 | 51.32620 | 0.44315 | 18341 ft | 386 kts | 103° |
| 2026-05-07 16:47 | 51.32014 | 0.48517 | 18880 ft | 389 kts | 103° |
| 2026-05-07 16:48 | 51.31403 | 0.52747 | 19435 ft | 392 kts | 103° |
| 2026-05-07 16:48 | 51.30788 | 0.57000 | 19991 ft | 395 kts | 103° |
| 2026-05-07 16:48 | 51.30154 | 0.61294 | 20561 ft | 398 kts | 104° |
| 2026-05-07 16:48 | 51.29450 | 0.65531 | 21104 ft | 401 kts | 106° |
| 2026-05-07 16:49 | 51.28671 | 0.69816 | 21663 ft | 404 kts | 107° |
| 2026-05-07 16:49 | 51.27851 | 0.74122 | 22219 ft | 407 kts | 108° |
| 2026-05-07 16:49 | 51.27016 | 0.78468 | 22750 ft | 410 kts | 108° |
| 2026-05-07 16:49 | 51.26184 | 0.82845 | 23302 ft | 414 kts | 107° |
| 2026-05-07 16:50 | 51.25355 | 0.87259 | 23775 ft | 417 kts | 107° |
| 2026-05-07 16:50 | 51.24529 | 0.91695 | 24257 ft | 419 kts | 107° |
| 2026-05-07 16:50 | 51.23701 | 0.96169 | 24671 ft | 421 kts | 107° |
| 2026-05-07 16:50 | 51.22870 | 1.00677 | 25085 ft | 424 kts | 107° |
| 2026-05-07 16:51 | 51.22036 | 1.05196 | 25486 ft | 426 kts | 107° |
| 2026-05-07 16:51 | 51.21194 | 1.09729 | 25876 ft | 428 kts | 107° |
| 2026-05-07 16:51 | 51.20352 | 1.14226 | 26253 ft | 430 kts | 107° |
| 2026-05-07 16:51 | 51.19490 | 1.18803 | 26631 ft | 432 kts | 107° |
| 2026-05-07 16:52 | 51.18625 | 1.23391 | 26996 ft | 434 kts | 107° |
| 2026-05-07 16:52 | 51.17750 | 1.28016 | 27362 ft | 436 kts | 107° |
| 2026-05-07 16:52 | 51.16876 | 1.32644 | 27715 ft | 439 kts | 107° |
| 2026-05-07 16:52 | 51.16225 | 1.37410 | 28064 ft | 442 kts | 98° |
| 2026-05-07 16:53 | 51.15958 | 1.42301 | 28403 ft | 444 kts | 94° |
| 2026-05-07 16:53 | 51.15732 | 1.47212 | 28736 ft | 446 kts | 95° |
| 2026-05-07 16:53 | 51.15497 | 1.52162 | 29065 ft | 448 kts | 95° |
| 2026-05-07 16:53 | 51.15256 | 1.57117 | 29386 ft | 450 kts | 95° |
| 2026-05-07 16:54 | 51.15012 | 1.62039 | 29690 ft | 452 kts | 95° |
| 2026-05-07 16:54 | 51.14761 | 1.67042 | 29995 ft | 454 kts | 95° |
| 2026-05-07 16:54 | 51.14509 | 1.72058 | 30272 ft | 456 kts | 95° |
| 2026-05-07 16:54 | 51.14254 | 1.77075 | 30515 ft | 457 kts | 95° |
| 2026-05-07 16:55 | 51.13997 | 1.82148 | 30763 ft | 459 kts | 95° |
| 2026-05-07 16:55 | 51.13738 | 1.87225 | 30996 ft | 460 kts | 95° |
| 2026-05-07 16:55 | 51.13474 | 1.92306 | 31219 ft | 462 kts | 95° |
| 2026-05-07 16:55 | 51.13206 | 1.97414 | 31481 ft | 462 kts | 95° |
| 2026-05-07 16:56 | 51.12938 | 2.02483 | 31812 ft | 461 kts | 95° |
| 2026-05-07 16:56 | 51.12670 | 2.07580 | 32110 ft | 460 kts | 95° |
| 2026-05-07 16:56 | 51.12140 | 2.17717 | 32717 ft | 459 kts | 95° |
| 2026-05-07 16:57 | 51.11875 | 2.22699 | 33027 ft | 458 kts | 95° |
| 2026-05-07 16:57 | 51.11603 | 2.27745 | 33335 ft | 458 kts | 95° |
| 2026-05-07 16:57 | 51.11325 | 2.32805 | 33645 ft | 457 kts | 95° |
| 2026-05-07 16:57 | 51.11045 | 2.37829 | 33949 ft | 457 kts | 95° |
| 2026-05-07 16:58 | 51.10762 | 2.42853 | 34221 ft | 456 kts | 95° |
| 2026-05-07 16:58 | 51.10477 | 2.47885 | 34462 ft | 456 kts | 95° |
| 2026-05-07 16:58 | 51.10199 | 2.52736 | 34694 ft | 456 kts | 95° |
| 2026-05-07 16:58 | 51.09907 | 2.57765 | 34913 ft | 456 kts | 96° |
| 2026-05-07 16:59 | 51.09478 | 2.62765 | 35053 ft | 456 kts | 103° |
| 2026-05-07 16:59 | 51.08566 | 2.67557 | 35090 ft | 451 kts | 113° |
| 2026-05-07 16:59 | 51.05743 | 2.76417 | 35073 ft | 449 kts | 119° |
| 2026-05-07 17:00 | 51.03319 | 2.83700 | 35087 ft | 448 kts | 118° |
| 2026-05-07 17:00 | 50.99944 | 2.93886 | 35091 ft | 448 kts | 119° |
| 2026-05-07 17:01 | 50.97032 | 3.02613 | 35091 ft | 448 kts | 119° |
| 2026-05-07 17:01 | 50.94104 | 3.11332 | 35087 ft | 448 kts | 119° |
| 2026-05-07 17:02 | 50.91669 | 3.18569 | 35085 ft | 448 kts | 119° |
| 2026-05-07 17:02 | 50.88259 | 3.28677 | 35088 ft | 447 kts | 119° |
| 2026-05-07 17:03 | 50.85799 | 3.35955 | 35087 ft | 447 kts | 119° |
| 2026-05-07 17:03 | 50.82879 | 3.44546 | 35094 ft | 447 kts | 119° |
| 2026-05-07 17:04 | 50.79931 | 3.53181 | 35100 ft | 446 kts | 120° |
| 2026-05-07 17:04 | 50.76974 | 3.61801 | 35090 ft | 446 kts | 120° |
| 2026-05-07 17:05 | 50.74013 | 3.70403 | 35090 ft | 446 kts | 120° |
| 2026-05-07 17:05 | 50.71057 | 3.78999 | 35097 ft | 445 kts | 120° |
| 2026-05-07 17:06 | 50.68124 | 3.87512 | 35090 ft | 445 kts | 120° |
| 2026-05-07 17:06 | 50.65163 | 3.96065 | 35088 ft | 444 kts | 120° |
| 2026-05-07 17:07 | 50.62184 | 4.04592 | 35096 ft | 444 kts | 120° |
| 2026-05-07 17:07 | 50.59367 | 4.13236 | 35088 ft | 444 kts | 116° |
| 2026-05-07 17:08 | 50.56824 | 4.22017 | 35087 ft | 444 kts | 115° |
| 2026-05-07 17:08 | 50.54275 | 4.30855 | 35087 ft | 444 kts | 116° |
| 2026-05-07 17:09 | 50.51649 | 4.39637 | 35089 ft | 444 kts | 117° |
| 2026-05-07 17:09 | 50.48993 | 4.48367 | 35086 ft | 444 kts | 117° |
| 2026-05-07 17:10 | 50.46325 | 4.57091 | 35078 ft | 444 kts | 117° |
| 2026-05-07 17:10 | 50.43682 | 4.65744 | 35083 ft | 443 kts | 117° |
| 2026-05-07 17:11 | 50.41017 | 4.74498 | 35077 ft | 443 kts | 117° |
| 2026-05-07 17:11 | 50.38354 | 4.83218 | 35065 ft | 443 kts | 117° |
| 2026-05-07 17:12 | 50.35676 | 4.91907 | 35063 ft | 444 kts | 117° |
| 2026-05-07 17:12 | 50.33000 | 5.00550 | 35057 ft | 444 kts | 117° |
| 2026-05-07 17:13 | 50.30307 | 5.09238 | 35058 ft | 444 kts | 117° |
| 2026-05-07 17:13 | 50.27604 | 5.17920 | 35050 ft | 444 kts | 117° |
| 2026-05-07 17:14 | 50.24895 | 5.26577 | 35051 ft | 444 kts | 117° |
| 2026-05-07 17:14 | 50.22170 | 5.35272 | 35054 ft | 445 kts | 117° |
| 2026-05-07 17:15 | 50.19463 | 5.43881 | 35049 ft | 445 kts | 118° |
| 2026-05-07 17:15 | 50.16728 | 5.52547 | 35049 ft | 445 kts | 118° |
| 2026-05-07 17:16 | 50.13982 | 5.61203 | 35053 ft | 445 kts | 118° |
| 2026-05-07 17:16 | 50.11241 | 5.69845 | 35050 ft | 445 kts | 118° |
| 2026-05-07 17:17 | 50.08486 | 5.78480 | 35054 ft | 445 kts | 118° |
| 2026-05-07 17:17 | 50.05590 | 5.86976 | 35054 ft | 444 kts | 121° |
| 2026-05-07 17:18 | 50.02480 | 5.95206 | 35053 ft | 443 kts | 123° |
| 2026-05-07 17:18 | 49.99320 | 6.03439 | 35055 ft | 443 kts | 122° |
| 2026-05-07 17:19 | 49.96206 | 6.11692 | 35050 ft | 443 kts | 122° |
| 2026-05-07 17:19 | 49.93112 | 6.19981 | 35049 ft | 443 kts | 122° |
| 2026-05-07 17:20 | 49.90037 | 6.28201 | 35045 ft | 443 kts | 122° |
| 2026-05-07 17:20 | 49.86926 | 6.36449 | 35043 ft | 443 kts | 122° |
| 2026-05-07 17:21 | 49.83803 | 6.44669 | 35038 ft | 443 kts | 123° |
| 2026-05-07 17:21 | 49.80666 | 6.52899 | 35041 ft | 443 kts | 123° |
| 2026-05-07 17:22 | 49.77559 | 6.61052 | 35038 ft | 443 kts | 123° |
| 2026-05-07 17:22 | 49.74428 | 6.69250 | 35038 ft | 443 kts | 123° |
| 2026-05-07 17:23 | 49.71289 | 6.77444 | 35038 ft | 443 kts | 123° |
| 2026-05-07 17:23 | 49.68148 | 6.85617 | 35043 ft | 443 kts | 123° |
| 2026-05-07 17:24 | 49.64987 | 6.93770 | 35042 ft | 442 kts | 123° |
| 2026-05-07 17:24 | 49.61840 | 7.01863 | 35042 ft | 443 kts | 123° |
| 2026-05-07 17:25 | 49.58685 | 7.10002 | 35046 ft | 443 kts | 123° |
| 2026-05-07 17:25 | 49.55520 | 7.18143 | 35053 ft | 443 kts | 123° |
| 2026-05-07 17:26 | 49.52362 | 7.26235 | 35048 ft | 442 kts | 123° |
| 2026-05-07 17:26 | 49.49194 | 7.34315 | 35044 ft | 442 kts | 123° |
| 2026-05-07 17:27 | 49.46011 | 7.42406 | 35039 ft | 442 kts | 123° |
| 2026-05-07 17:27 | 49.42822 | 7.50492 | 35033 ft | 442 kts | 123° |
| 2026-05-07 17:28 | 49.39630 | 7.58564 | 35033 ft | 442 kts | 124° |
| 2026-05-07 17:28 | 49.36451 | 7.66571 | 35030 ft | 442 kts | 124° |
| 2026-05-07 17:29 | 49.33239 | 7.74633 | 35035 ft | 443 kts | 124° |
| 2026-05-07 17:29 | 49.30027 | 7.82683 | 35033 ft | 443 kts | 124° |
| 2026-05-07 17:30 | 49.26802 | 7.90730 | 35038 ft | 443 kts | 124° |
| 2026-05-07 17:30 | 49.23592 | 7.98711 | 35038 ft | 443 kts | 124° |
| 2026-05-07 17:31 | 49.20361 | 8.06747 | 35037 ft | 444 kts | 124° |
| 2026-05-07 17:31 | 49.17122 | 8.14776 | 35037 ft | 444 kts | 124° |
| 2026-05-07 17:32 | 49.13864 | 8.22792 | 35035 ft | 444 kts | 124° |
| 2026-05-07 17:32 | 49.10605 | 8.30812 | 35033 ft | 445 kts | 124° |
| 2026-05-07 17:33 | 49.07338 | 8.38821 | 35032 ft | 445 kts | 124° |
| 2026-05-07 17:33 | 49.04083 | 8.46773 | 35034 ft | 445 kts | 124° |
| 2026-05-07 17:34 | 49.00680 | 8.54620 | 35029 ft | 441 kts | 135° |
| 2026-05-07 17:34 | 48.98398 | 8.57656 | 35031 ft | 434 kts | 150° |
| 2026-05-07 17:34 | 48.95703 | 8.59655 | 35026 ft | 428 kts | 165° |
| 2026-05-07 17:35 | 48.92810 | 8.60498 | 35030 ft | 422 kts | 180° |
| 2026-05-07 17:35 | 48.89877 | 8.60465 | 35026 ft | 421 kts | 184° |
| 2026-05-07 17:35 | 48.84011 | 8.60262 | 35019 ft | 422 kts | 184° |
| 2026-05-07 17:36 | 48.81079 | 8.60163 | 34801 ft | 422 kts | 184° |
| 2026-05-07 17:36 | 48.78134 | 8.60065 | 34189 ft | 423 kts | 184° |
| 2026-05-07 17:36 | 48.75225 | 8.59969 | 33616 ft | 423 kts | 184° |
| 2026-05-07 17:36 | 48.72293 | 8.59873 | 32979 ft | 421 kts | 184° |
| 2026-05-07 17:37 | 48.69334 | 8.59773 | 32332 ft | 419 kts | 183° |
| 2026-05-07 17:37 | 48.66453 | 8.59676 | 31703 ft | 418 kts | 183° |
| 2026-05-07 17:37 | 48.63559 | 8.59580 | 31106 ft | 417 kts | 183° |
| 2026-05-07 17:37 | 48.60661 | 8.59487 | 30505 ft | 415 kts | 183° |
| 2026-05-07 17:38 | 48.57777 | 8.59395 | 29880 ft | 414 kts | 183° |
| 2026-05-07 17:38 | 48.54900 | 8.59305 | 29190 ft | 413 kts | 183° |
| 2026-05-07 17:38 | 48.52036 | 8.59213 | 28515 ft | 411 kts | 183° |
| 2026-05-07 17:38 | 48.49181 | 8.59120 | 27857 ft | 410 kts | 183° |
| 2026-05-07 17:39 | 48.46340 | 8.59031 | 27214 ft | 408 kts | 183° |
| 2026-05-07 17:39 | 48.43491 | 8.58942 | 26586 ft | 407 kts | 183° |
| 2026-05-07 17:39 | 48.40673 | 8.58854 | 25972 ft | 405 kts | 182° |
| 2026-05-07 17:39 | 48.37899 | 8.58769 | 25375 ft | 403 kts | 182° |
| 2026-05-07 17:40 | 48.35068 | 8.58681 | 24779 ft | 401 kts | 182° |
| 2026-05-07 17:40 | 48.32322 | 8.58590 | 24211 ft | 399 kts | 182° |
| 2026-05-07 17:40 | 48.29554 | 8.58499 | 23646 ft | 397 kts | 182° |
| 2026-05-07 17:40 | 48.26793 | 8.58411 | 22981 ft | 396 kts | 182° |
| 2026-05-07 17:41 | 48.24050 | 8.58323 | 22324 ft | 395 kts | 182° |
| 2026-05-07 17:41 | 48.21301 | 8.58236 | 21603 ft | 394 kts | 183° |
| 2026-05-07 17:41 | 48.18566 | 8.58153 | 20981 ft | 393 kts | 184° |
| 2026-05-07 17:41 | 48.15861 | 8.57783 | 20367 ft | 390 kts | 192° |
| 2026-05-07 17:42 | 48.13200 | 8.56985 | 19765 ft | 389 kts | 193° |
| 2026-05-07 17:42 | 48.10587 | 8.56196 | 19183 ft | 388 kts | 193° |
| 2026-05-07 17:42 | 48.07946 | 8.55404 | 18603 ft | 387 kts | 193° |
| 2026-05-07 17:42 | 48.05313 | 8.54619 | 18146 ft | 382 kts | 193° |
| 2026-05-07 17:43 | 48.02749 | 8.53861 | 18015 ft | 368 kts | 193° |
| 2026-05-07 17:43 | 48.00304 | 8.53144 | 18043 ft | 350 kts | 193° |
| 2026-05-07 17:43 | 47.97924 | 8.52676 | 17901 ft | 341 kts | 184° |
| 2026-05-07 17:43 | 47.95574 | 8.52888 | 17537 ft | 339 kts | 173° |
| 2026-05-07 17:44 | 47.93292 | 8.53786 | 17113 ft | 339 kts | 161° |
| 2026-05-07 17:44 | 47.91178 | 8.55331 | 16688 ft | 340 kts | 150° |
| 2026-05-07 17:44 | 47.89902 | 8.56685 | 16409 ft | 341 kts | 143° |
| 2026-05-07 17:44 | 47.88910 | 8.57902 | 16182 ft | 340 kts | 143° |
| 2026-05-07 17:45 | 47.87090 | 8.60127 | 15767 ft | 337 kts | 143° |
| 2026-05-07 17:45 | 47.85287 | 8.62328 | 15063 ft | 333 kts | 143° |
| 2026-05-07 17:45 | 47.83504 | 8.64496 | 14359 ft | 331 kts | 143° |
| 2026-05-07 17:45 | 47.81726 | 8.66653 | 13651 ft | 328 kts | 143° |
| 2026-05-07 17:46 | 47.79972 | 8.68777 | 12905 ft | 324 kts | 143° |
| 2026-05-07 17:46 | 47.78227 | 8.70884 | 12175 ft | 321 kts | 143° |
| 2026-05-07 17:46 | 47.76505 | 8.72963 | 11469 ft | 317 kts | 143° |
| 2026-05-07 17:46 | 47.74806 | 8.75018 | 10774 ft | 314 kts | 143° |
| 2026-05-07 17:47 | 47.73146 | 8.77028 | 10109 ft | 310 kts | 143° |
| 2026-05-07 17:47 | 47.71566 | 8.78942 | 9714 ft | 298 kts | 143° |
| 2026-05-07 17:47 | 47.69981 | 8.80858 | 9189 ft | 290 kts | 143° |
| 2026-05-07 17:47 | 47.68436 | 8.82718 | 9008 ft | 281 kts | 143° |
| 2026-05-07 17:48 | 47.66958 | 8.84498 | 9028 ft | 269 kts | 143° |
| 2026-05-07 17:48 | 47.65518 | 8.86227 | 9028 ft | 266 kts | 143° |
| 2026-05-07 17:48 | 47.64095 | 8.87932 | 9030 ft | 266 kts | 143° |
| 2026-05-07 17:48 | 47.62724 | 8.89823 | 9029 ft | 267 kts | 134° |
| 2026-05-07 17:49 | 47.61574 | 8.91987 | 8836 ft | 267 kts | 125° |
| 2026-05-07 17:49 | 47.60663 | 8.94375 | 8479 ft | 267 kts | 118° |
| 2026-05-07 17:49 | 47.59601 | 8.96550 | 8073 ft | 264 kts | 142° |
| 2026-05-07 17:49 | 47.58035 | 8.97855 | 7714 ft | 258 kts | 166° |
| 2026-05-07 17:50 | 47.56274 | 8.98108 | 7334 ft | 253 kts | 189° |
| 2026-05-07 17:50 | 47.54627 | 8.97318 | 7049 ft | 248 kts | 212° |
| 2026-05-07 17:50 | 47.53324 | 8.95649 | 7028 ft | 250 kts | 234° |
| 2026-05-07 17:50 | 47.52574 | 8.93436 | 7019 ft | 234 kts | 256° |
| 2026-05-07 17:51 | 47.52449 | 8.91092 | 7023 ft | 227 kts | 277° |
| 2026-05-07 17:51 | 47.52898 | 8.88870 | 7026 ft | 227 kts | 297° |
| 2026-05-07 17:51 | 47.53848 | 8.87044 | 7027 ft | 229 kts | 318° |
| 2026-05-07 17:51 | 47.55160 | 8.85696 | 7028 ft | 230 kts | 326° |
| 2026-05-07 17:52 | 47.56507 | 8.84403 | 7034 ft | 231 kts | 325° |
| 2026-05-07 17:52 | 47.57849 | 8.83102 | 7031 ft | 230 kts | 325° |
| 2026-05-07 17:52 | 47.59038 | 8.81573 | 6814 ft | 225 kts | 302° |
| 2026-05-07 17:52 | 47.59804 | 8.79553 | 6487 ft | 225 kts | 295° |
| 2026-05-07 17:53 | 47.60589 | 8.77545 | 6155 ft | 225 kts | 302° |
| 2026-05-07 17:53 | 47.61463 | 8.75642 | 5792 ft | 220 kts | 304° |
| 2026-05-07 17:53 | 47.62317 | 8.73807 | 5435 ft | 213 kts | 304° |
| 2026-05-07 17:53 | 47.63151 | 8.72005 | 5042 ft | 209 kts | 304° |
| 2026-05-07 17:54 | 47.63964 | 8.70221 | 5017 ft | 211 kts | 304° |
| 2026-05-07 17:54 | 47.64783 | 8.68396 | 5013 ft | 213 kts | 303° |
| 2026-05-07 17:54 | 47.65595 | 8.66593 | 5042 ft | 204 kts | 304° |
| 2026-05-07 17:54 | 47.66358 | 8.64900 | 5014 ft | 198 kts | 304° |
| 2026-05-07 17:55 | 47.67119 | 8.63212 | 5011 ft | 196 kts | 304° |
| 2026-05-07 17:55 | 47.67876 | 8.61531 | 5009 ft | 196 kts | 304° |
| 2026-05-07 17:55 | 47.68635 | 8.59842 | 5012 ft | 196 kts | 304° |
| 2026-05-07 17:55 | 47.69389 | 8.58159 | 5017 ft | 196 kts | 304° |
| 2026-05-07 17:56 | 47.70143 | 8.56470 | 5017 ft | 196 kts | 304° |
| 2026-05-07 17:56 | 47.70897 | 8.54779 | 5020 ft | 196 kts | 304° |
| 2026-05-07 17:56 | 47.71507 | 8.52978 | 5012 ft | 197 kts | 281° |
| 2026-05-07 17:56 | 47.71372 | 8.51000 | 4750 ft | 195 kts | 251° |
| 2026-05-07 17:57 | 47.70817 | 8.49151 | 4352 ft | 197 kts | 245° |
| 2026-05-07 17:57 | 47.70410 | 8.47948 | 4101 ft | 197 kts | 244° |
| 2026-05-07 17:57 | 47.69578 | 8.45561 | 4014 ft | 200 kts | 244° |
| 2026-05-07 17:57 | 47.68929 | 8.43715 | 4017 ft | 203 kts | 244° |
| 2026-05-07 17:58 | 47.68275 | 8.41853 | 4034 ft | 204 kts | 244° |
| 2026-05-07 17:58 | 47.67621 | 8.39999 | 4020 ft | 202 kts | 244° |
| 2026-05-07 17:58 | 47.67018 | 8.38124 | 4015 ft | 201 kts | 245° |
| 2026-05-07 17:58 | 47.66201 | 8.36456 | 4011 ft | 202 kts | 225° |
| 2026-05-07 17:59 | 47.65032 | 8.35297 | 4013 ft | 204 kts | 204° |
| 2026-05-07 17:59 | 47.63656 | 8.34812 | 4012 ft | 205 kts | 184° |
| 2026-05-07 17:59 | 47.62246 | 8.35083 | 4011 ft | 206 kts | 162° |
| 2026-05-07 17:59 | 47.60994 | 8.36089 | 4013 ft | 206 kts | 140° |
| 2026-05-07 18:00 | 47.59939 | 8.37519 | 4009 ft | 206 kts | 137° |
| 2026-05-07 18:00 | 47.58890 | 8.38963 | 4008 ft | 206 kts | 137° |
| 2026-05-07 18:00 | 47.57837 | 8.40411 | 4367 ft | 210 kts | 136° |
| 2026-05-07 18:00 | 47.56743 | 8.41914 | 4930 ft | 222 kts | 136° |
| 2026-05-07 18:01 | 47.55785 | 8.43742 | 5496 ft | 230 kts | 114° |
| 2026-05-07 18:01 | 47.55246 | 8.45986 | 6339 ft | 233 kts | 107° |
| 2026-05-07 18:01 | 47.54797 | 8.48315 | 7012 ft | 242 kts | 106° |
| 2026-05-07 18:01 | 47.54356 | 8.50712 | 7008 ft | 239 kts | 106° |
| 2026-05-07 18:02 | 47.53498 | 8.55449 | 7005 ft | 238 kts | 105° |
| 2026-05-07 18:02 | 47.53066 | 8.57833 | 7009 ft | 244 kts | 105° |
| 2026-05-07 18:02 | 47.52629 | 8.60240 | 6792 ft | 246 kts | 105° |
| 2026-05-07 18:03 | 47.52186 | 8.62681 | 6446 ft | 246 kts | 105° |
| 2026-05-07 18:03 | 47.51741 | 8.65118 | 6125 ft | 244 kts | 105° |
| 2026-05-07 18:03 | 47.51296 | 8.67507 | 6005 ft | 234 kts | 107° |
| 2026-05-07 18:03 | 47.50573 | 8.69545 | 6006 ft | 218 kts | 129° |
| 2026-05-07 18:04 | 47.49590 | 8.71232 | 6008 ft | 217 kts | 133° |
| 2026-05-07 18:04 | 47.48550 | 8.72839 | 6007 ft | 216 kts | 139° |
| 2026-05-07 18:04 | 47.47334 | 8.74130 | 6007 ft | 216 kts | 151° |
| 2026-05-07 18:04 | 47.46018 | 8.75188 | 6008 ft | 215 kts | 153° |
| 2026-05-07 18:05 | 47.44706 | 8.76192 | 5995 ft | 216 kts | 154° |
| 2026-05-07 18:05 | 47.43371 | 8.77206 | 5866 ft | 215 kts | 154° |
| 2026-05-07 18:05 | 47.42042 | 8.78211 | 5738 ft | 215 kts | 154° |
| 2026-05-07 18:05 | 47.40713 | 8.79210 | 5620 ft | 214 kts | 154° |
| 2026-05-07 18:06 | 47.39380 | 8.80209 | 5473 ft | 214 kts | 154° |
| 2026-05-07 18:06 | 47.38083 | 8.81177 | 5393 ft | 206 kts | 154° |
| 2026-05-07 18:06 | 47.36813 | 8.82121 | 5266 ft | 203 kts | 154° |
| 2026-05-07 18:06 | 47.35553 | 8.83055 | 5124 ft | 202 kts | 154° |
| 2026-05-07 18:07 | 47.34303 | 8.83979 | 5047 ft | 201 kts | 154° |
| 2026-05-07 18:07 | 47.33029 | 8.84726 | 4996 ft | 200 kts | 173° |
| 2026-05-07 18:07 | 47.31659 | 8.84495 | 5016 ft | 200 kts | 195° |
| 2026-05-07 18:07 | 47.30328 | 8.83907 | 5014 ft | 200 kts | 198° |
| 2026-05-07 18:08 | 47.29008 | 8.83276 | 5014 ft | 200 kts | 199° |
| 2026-05-07 18:08 | 47.27695 | 8.82643 | 5011 ft | 197 kts | 199° |
| 2026-05-07 18:08 | 47.26400 | 8.82016 | 5009 ft | 195 kts | 199° |
| 2026-05-07 18:08 | 47.25114 | 8.81393 | 5013 ft | 194 kts | 199° |
| 2026-05-07 18:09 | 47.23852 | 8.80694 | 5006 ft | 194 kts | 212° |
| 2026-05-07 18:09 | 47.22963 | 8.79272 | 5017 ft | 193 kts | 239° |
| 2026-05-07 18:09 | 47.22316 | 8.77542 | 5015 ft | 193 kts | 243° |
| 2026-05-07 18:09 | 47.21874 | 8.75659 | 5009 ft | 193 kts | 262° |
| 2026-05-07 18:10 | 47.21896 | 8.73721 | 5011 ft | 193 kts | 282° |
| 2026-05-07 18:10 | 47.22374 | 8.71896 | 5013 ft | 192 kts | 302° |
| 2026-05-07 18:10 | 47.23250 | 8.70425 | 5010 ft | 192 kts | 322° |
| 2026-05-07 18:10 | 47.24410 | 8.69461 | 5013 ft | 192 kts | 335° |
| 2026-05-07 18:11 | 47.25625 | 8.68635 | 5012 ft | 192 kts | 335° |
| 2026-05-07 18:11 | 47.26429 | 8.68088 | 5012 ft | 192 kts | 335° |
| 2026-05-07 18:11 | 47.28050 | 8.66981 | 5010 ft | 192 kts | 335° |
| 2026-05-07 18:11 | 47.29266 | 8.66151 | 4999 ft | 193 kts | 335° |
| 2026-05-07 18:12 | 47.30466 | 8.65330 | 4831 ft | 191 kts | 335° |
| 2026-05-07 18:12 | 47.31656 | 8.64517 | 4574 ft | 186 kts | 335° |
| 2026-05-07 18:12 | 47.32803 | 8.63732 | 4327 ft | 176 kts | 335° |
| 2026-05-07 18:12 | 47.33894 | 8.62986 | 4059 ft | 166 kts | 335° |
| 2026-05-07 18:13 | 47.34887 | 8.62306 | 3824 ft | 151 kts | 335° |
| 2026-05-07 18:13 | 47.35822 | 8.61665 | 3602 ft | 145 kts | 335° |
| 2026-05-07 18:13 | 47.36728 | 8.61044 | 3404 ft | 142 kts | 335° |
| 2026-05-07 18:13 | 47.37616 | 8.60435 | 3205 ft | 140 kts | 335° |
| 2026-05-07 18:14 | 47.38499 | 8.59831 | 3000 ft | 140 kts | 335° |
| 2026-05-07 18:14 | 47.39377 | 8.59230 | 2823 ft | 139 kts | 335° |
| 2026-05-07 18:14 | 47.40255 | 8.58633 | 2592 ft | 138 kts | 335° |
| 2026-05-07 18:14 | 47.41126 | 8.58041 | 2357 ft | 138 kts | 335° |
| 2026-05-07 18:15 | 47.41998 | 8.57447 | 2150 ft | 138 kts | 335° |
| 2026-05-07 18:15 | 47.42869 | 8.56850 | 1936 ft | 138 kts | 335° |
| 2026-05-07 18:15 | 47.43727 | 8.56260 | 1725 ft | 138 kts | 334° |
| 2026-05-07 18:15 | 47.44588 | 8.55645 | 1514 ft | 136 kts | 334° |
| 2026-05-07 18:16 | 47.45417 | 8.55077 | 1404 ft | 123 kts | 333° |
| 2026-05-07 18:16 | 47.46030 | 8.54651 | 1385 ft | 58 kts | 335° |
| 2026-05-07 18:16 | 47.46231 | 8.54515 | 1387 ft | 26 kts | 336° |
| 2026-05-07 18:16 | 47.46399 | 8.54402 | 1381 ft | 27 kts | 335° |
| 2026-05-07 18:17 | 47.46573 | 8.54278 | 1380 ft | 28 kts | 336° |
| 2026-05-07 18:17 | 47.46753 | 8.54159 | 1378 ft | 28 kts | 335° |
| 2026-05-07 18:17 | 47.46927 | 8.54041 | 1382 ft | 28 kts | 336° |
| 2026-05-07 18:17 | 47.47014 | 8.54069 | 1383 ft | 8 kts | 78° |
| 2026-05-07 18:18 | 47.47026 | 8.54139 | 1383 ft | 6 kts | 85° |
| 2026-05-07 18:18 | 47.47017 | 8.54193 | 1382 ft | 5 kts | 110° |
| 2026-05-07 18:18 | 47.47000 | 8.54233 | 1380 ft | 4 kts | 131° |
| 2026-05-07 18:18 | 47.46979 | 8.54260 | 1384 ft | 4 kts | 140° |
| 2026-05-07 18:19 | 47.46948 | 8.54298 | 1382 ft | 8 kts | 139° |
| 2026-05-07 18:19 | 47.46905 | 8.54346 | 1382 ft | 7 kts | 150° |
| 2026-05-07 18:19 | 47.46859 | 8.54380 | 1381 ft | 7 kts | 149° |
| 2026-05-07 18:19 | 47.46828 | 8.54426 | 1379 ft | 5 kts | 126° |
| 2026-05-07 18:20 | 47.46804 | 8.54474 | 1382 ft | 7 kts | 125° |
| 2026-05-07 18:20 | 47.46780 | 8.54526 | 1385 ft | 5 kts | 125° |
| 2026-05-07 18:20 | 47.46744 | 8.54585 | 1385 ft | 10 kts | 147° |
| 2026-05-07 18:20 | 47.46670 | 8.54637 | 1399 ft | 14 kts | 155° |
| 2026-05-07 18:21 | 47.46529 | 8.54734 | 1388 ft | 26 kts | 155° |
| 2026-05-07 18:21 | 47.46399 | 8.54825 | 1385 ft | 23 kts | 153° |
| 2026-05-07 18:21 | 47.46291 | 8.54900 | 1386 ft | 11 kts | 157° |
| 2026-05-07 18:21 | 47.46231 | 8.54941 | 1389 ft | 8 kts | 154° |
| 2026-05-07 18:22 | 47.46186 | 8.54973 | 1388 ft | 6 kts | 154° |
| 2026-05-07 18:22 | 47.46163 | 8.54988 | 1388 ft | 5 kts | 155° |
| 2026-05-07 18:22 | 47.46121 | 8.55017 | 1399 ft | 8 kts | 154° |
| 2026-05-07 18:22 | 47.46120 | 8.55058 | 1404 ft | 5 kts | 62° |
| 2026-05-07 18:23 | 47.46130 | 8.55090 | 1395 ft | 6 kts | 64° |
| 2026-05-07 18:23 | 47.46137 | 8.55111 | 1402 ft | 0 kts | 65° |
| 2026-05-07 18:23 | 47.46139 | 8.55117 | 1401 ft | 1 kts | 65° |
| 2026-05-07 18:23 | 47.46139 | 8.55119 | 1401 ft | 0 kts | 65° |
| 2026-05-07 18:26 | 47.46139 | 8.55118 | 1401 ft | 0 kts | 65° |
| 2026-05-07 18:26 | 47.46139 | 8.55119 | 1401 ft | 0 kts | 65° |